createdAt,value
2023-05-19T00:03:54.885Z,102337.97
2023-05-19T00:09:03.975Z,102337.56
2023-05-19T00:14:08.023Z,102342.44
2023-05-19T00:19:12.431Z,102331.00
2023-05-19T00:24:13.952Z,102334.81
2023-05-19T00:29:18.607Z,102327.84
2023-05-19T00:34:21.441Z,102319.78
2023-05-19T00:39:22.916Z,102315.25
2023-05-19T00:44:24.419Z,102314.38
2023-05-19T00:49:25.900Z,102307.06
2023-05-19T00:54:28.585Z,102302.19
2023-05-19T00:59:30.192Z,102308.00
2023-05-19T01:04:34.856Z,102317.41
2023-05-19T01:09:37.254Z,102312.84
2023-05-19T01:14:38.740Z,102314.47
2023-05-19T01:20:10.880Z,102309.16
2023-05-19T01:25:34.146Z,102300.00
2023-05-19T01:30:44.337Z,102298.34
2023-05-19T01:35:47.480Z,102290.28
2023-05-19T01:40:51.564Z,102282.94
2023-05-19T01:45:53.480Z,102278.78
2023-05-19T01:50:57.297Z,102273.38
2023-05-19T01:55:59.606Z,102258.06
2023-05-19T02:01:21.383Z,102252.66
2023-05-19T02:06:37.686Z,102243.88
2023-05-19T02:11:52.188Z,102240.63
2023-05-19T02:16:54.268Z,102229.31
2023-05-19T02:21:56.353Z,102211.44
2023-05-19T02:26:57.968Z,102196.19
2023-05-19T02:32:01.374Z,102173.63
2023-05-19T02:37:03.118Z,102151.78
2023-05-19T02:42:05.269Z,102123.16
2023-05-19T02:47:06.750Z,102082.78
2023-05-19T02:52:08.166Z,102059.28
2023-05-19T02:57:10.043Z,102050.25
2023-05-19T03:02:11.624Z,102043.22
2023-05-19T03:07:16.435Z,102029.25
2023-05-19T03:12:18.056Z,102035.94
2023-05-19T03:17:19.883Z,102044.53
2023-05-19T03:22:21.469Z,102046.66
2023-05-19T03:27:22.976Z,102042.69
2023-05-19T03:32:24.760Z,102045.59
2023-05-19T03:37:26.334Z,102061.88
2023-05-19T03:42:28.190Z,102068.84
2023-05-19T03:47:29.769Z,102072.38
2023-05-19T03:52:31.490Z,102080.19
2023-05-19T03:57:33.634Z,102086.19
2023-05-19T04:02:35.216Z,102090.44
2023-05-19T04:07:36.907Z,102096.06
2023-05-19T04:12:38.424Z,102098.66
2023-05-19T04:17:40.233Z,102115.91
2023-05-19T04:22:41.762Z,102112.34
2023-05-19T04:27:43.220Z,102123.47
2023-05-19T04:32:44.796Z,102119.09
2023-05-19T04:37:48.525Z,102130.56
2023-05-19T04:42:52.304Z,102126.06
2023-05-19T04:47:57.803Z,102129.66
2023-05-19T04:52:59.366Z,102137.56
2023-05-19T04:58:01.090Z,102134.69
2023-05-19T05:03:05.305Z,102137.34
2023-05-19T05:08:07.159Z,102151.03
2023-05-19T05:13:10.585Z,102159.13
2023-05-19T05:18:15.077Z,102163.78
2023-05-19T05:23:16.808Z,102163.22
2023-05-19T05:28:18.633Z,102168.44
2023-05-19T05:33:22.250Z,102180.38
2023-05-19T05:38:24.118Z,102194.28
2023-05-19T05:43:25.794Z,102185.38
2023-05-19T05:48:27.584Z,102179.75
2023-05-19T05:53:32.152Z,102186.16
2023-05-19T05:58:36.348Z,102201.59
2023-05-19T06:03:41.156Z,102197.91
2023-05-19T06:08:42.830Z,102211.69
2023-05-19T06:13:44.266Z,102218.44
2023-05-19T06:18:46.982Z,102223.75
2023-05-19T06:23:48.652Z,102221.47
2023-05-19T06:28:50.452Z,102188.84
2023-05-19T06:33:54.531Z,102183.47
2023-05-19T06:38:56.565Z,102172.69
2023-05-19T06:43:58.066Z,102176.47
2023-05-19T06:48:59.531Z,102162.34
2023-05-19T06:54:01.018Z,102179.28
2023-05-19T06:59:02.670Z,102181.88
2023-05-19T07:04:04.389Z,102184.44
2023-05-19T07:09:06.534Z,102186.63
2023-05-19T07:14:08.554Z,102181.50
2023-05-19T07:19:10.032Z,102201.06
2023-05-19T07:24:11.525Z,102205.19
2023-05-19T07:29:12.974Z,102202.94
2023-05-19T07:34:14.508Z,102220.00
2023-05-19T07:39:16.528Z,102224.78
2023-05-19T07:44:18.928Z,102234.81
2023-05-19T07:49:20.457Z,102301.63
2023-05-19T07:54:21.879Z,102314.63
2023-05-19T07:59:24.294Z,102335.81
2023-05-19T08:04:25.821Z,102412.28
2023-05-19T08:09:27.592Z,102436.94
2023-05-19T08:14:29.136Z,102446.41
2023-05-19T08:19:30.801Z,102441.00
2023-05-19T08:24:33.879Z,102439.84
2023-05-19T08:29:36.559Z,102432.50
2023-05-19T08:34:38.051Z,102429.50
2023-05-19T08:39:39.582Z,102420.78
2023-05-19T08:44:42.250Z,102419.00
2023-05-19T08:49:46.518Z,102413.72
2023-05-19T08:55:09.609Z,102403.59
2023-05-19T09:00:12.519Z,102407.53
2023-05-19T09:05:16.524Z,102397.16
2023-05-19T09:10:18.215Z,102393.66
2023-05-19T09:15:20.189Z,102380.53
2023-05-19T09:20:21.959Z,102383.06
2023-05-19T09:25:23.923Z,102376.59
2023-05-19T09:30:26.056Z,102373.16
2023-05-19T09:35:27.736Z,102361.53
2023-05-19T09:40:29.275Z,102370.97
2023-05-19T09:45:31.087Z,102358.97
2023-05-19T09:50:33.893Z,102357.16
2023-05-19T09:55:35.531Z,102365.06
2023-05-19T10:00:37.921Z,102357.31
2023-05-19T10:05:41.692Z,102351.59
2023-05-19T10:10:46.278Z,102342.91
2023-05-19T10:15:58.206Z,102346.22
2023-05-19T10:21:03.256Z,102338.56
2023-05-19T10:26:06.905Z,102329.84
2023-05-19T10:31:16.145Z,102336.72
2023-05-19T10:36:36.429Z,102315.81
2023-05-19T10:42:09.588Z,102316.72
2023-05-19T10:47:13.760Z,102321.84
2023-05-19T10:52:26.408Z,102322.72
2023-05-19T10:57:34.279Z,102313.19
2023-05-19T11:02:45.275Z,102307.03
2023-05-19T11:08:02.308Z,102306.19
2023-05-19T11:13:07.304Z,102300.09
2023-05-19T11:18:09.043Z,102300.00
2023-05-19T11:23:18.657Z,102320.22
2023-05-19T11:28:27.270Z,102307.84
2023-05-19T11:33:33.831Z,102304.34
2023-05-19T11:38:35.854Z,102303.56
2023-05-19T11:43:41.036Z,102293.94
2023-05-19T11:48:52.256Z,102273.75
2023-05-19T11:53:54.882Z,102285.09
2023-05-19T11:58:59.240Z,102284.19
2023-05-19T12:04:02.979Z,102281.44
2023-05-19T12:09:09.475Z,102282.50
2023-05-19T12:14:12.353Z,102261.38
2023-05-19T12:19:17.249Z,102276.41
2023-05-19T12:24:22.533Z,102271.19
2023-05-19T12:29:29.012Z,102279.00
2023-05-19T12:34:35.437Z,102255.00
2023-05-19T12:39:37.853Z,102263.81
2023-05-19T12:44:48.550Z,102270.25
2023-05-19T12:49:59.548Z,102254.47
2023-05-19T12:55:09.260Z,102252.69
2023-05-19T13:00:17.772Z,102256.28
2023-05-19T13:05:19.550Z,102241.16
2023-05-19T13:10:21.122Z,102248.41
2023-05-19T13:15:24.853Z,102239.66
2023-05-19T13:20:28.681Z,102242.28
2023-05-19T13:25:30.890Z,102231.72
2023-05-19T13:30:34.195Z,102221.13
2023-05-19T13:35:39.269Z,102208.78
2023-05-19T13:40:41.057Z,102225.63
2023-05-19T13:45:44.431Z,102225.69
2023-05-19T13:50:45.983Z,102216.84
2023-05-19T13:55:47.944Z,102208.16
2023-05-19T14:00:53.959Z,102217.75
2023-05-19T14:05:55.615Z,102209.91
2023-05-19T14:10:57.160Z,102204.66
2023-05-19T14:15:58.701Z,102196.72
2023-05-19T14:21:00.229Z,102197.66
2023-05-19T14:26:01.816Z,102195.88
2023-05-19T14:31:03.395Z,102183.63
2023-05-19T14:36:05.513Z,102183.63
2023-05-19T14:41:07.212Z,102196.78
2023-05-19T14:46:09.977Z,102180.13
2023-05-19T14:51:11.555Z,102161.75
2023-05-19T14:56:12.989Z,102169.66
2023-05-19T15:01:14.454Z,102167.88
2023-05-19T15:06:16.339Z,102171.34
2023-05-19T15:11:17.865Z,102178.41
2023-05-19T15:16:19.319Z,102167.88
2023-05-19T15:21:20.820Z,102177.47
2023-05-19T15:26:22.464Z,102162.66
2023-05-19T15:31:24.078Z,102156.50
2023-05-19T15:36:25.577Z,102166.13
2023-05-19T15:41:27.174Z,102158.22
2023-05-19T15:46:31.470Z,102164.34
2023-05-19T15:51:33.038Z,102151.25
2023-05-19T15:56:34.526Z,102153.84
2023-05-19T16:01:36.310Z,102146.91
2023-05-19T16:06:37.995Z,102143.38
2023-05-19T16:11:39.586Z,102141.63
2023-05-19T16:16:41.170Z,102143.28
2023-05-19T16:21:43.003Z,102133.75
2023-05-19T16:26:44.425Z,102125.91
2023-05-19T16:31:45.878Z,102142.47
2023-05-19T16:36:47.341Z,102118.91
2023-05-19T16:41:49.089Z,102122.41
2023-05-19T16:46:50.651Z,102124.16
2023-05-19T16:51:53.138Z,102136.41
2023-05-19T16:56:54.734Z,102124.13
2023-05-19T17:01:56.822Z,102121.50
2023-05-19T17:06:58.407Z,102126.78
2023-05-19T17:11:59.860Z,102126.78
2023-05-19T17:17:01.679Z,102132.00
2023-05-19T17:22:03.856Z,102135.50
2023-05-19T17:27:05.445Z,102135.47
2023-05-19T17:32:07.106Z,102123.25
2023-05-19T17:37:08.630Z,102127.66
2023-05-19T17:42:10.639Z,102134.66
2023-05-19T17:47:12.147Z,102136.41
2023-05-19T17:52:13.957Z,102132.91
2023-05-19T17:57:17.574Z,102134.63
2023-05-19T18:02:19.384Z,102142.50
2023-05-19T18:07:24.022Z,102154.63
2023-05-19T18:12:25.534Z,102146.69
2023-05-19T18:17:27.093Z,102158.94
2023-05-19T18:22:28.608Z,102150.06
2023-05-19T18:27:31.352Z,102151.75
2023-05-19T18:32:33.773Z,102160.47
2023-05-19T18:37:35.760Z,102154.16
2023-05-19T18:42:37.775Z,102154.09
2023-05-19T18:47:39.747Z,102164.44
2023-05-19T18:52:41.344Z,102166.03
2023-05-19T18:57:43.229Z,102176.41
2023-05-19T19:02:44.745Z,102177.91
2023-05-19T19:07:49.503Z,102193.38
2023-05-19T19:12:51.742Z,102195.63
2023-05-19T19:17:53.420Z,102198.97
2023-05-19T19:22:55.094Z,102202.16
2023-05-19T19:27:56.664Z,102205.47
2023-05-19T19:32:59.501Z,102211.31
2023-05-19T19:38:02.221Z,102213.66
2023-05-19T19:43:06.405Z,102220.28
2023-05-19T19:48:08.072Z,102235.31
2023-05-19T19:53:10.047Z,102241.97
2023-05-19T19:58:11.632Z,102247.69
2023-05-19T20:03:13.346Z,102250.84
2023-05-19T20:08:16.127Z,102259.09
2023-05-19T20:13:19.739Z,102250.81
2023-05-19T20:18:21.543Z,102261.59
2023-05-19T20:23:23.126Z,102258.97
2023-05-19T20:28:26.798Z,102261.75
2023-05-19T20:33:29.631Z,102256.88
2023-05-19T20:38:32.538Z,102266.91
2023-05-19T20:43:34.843Z,102273.88
2023-05-19T20:48:36.507Z,102270.91
2023-05-19T20:53:41.125Z,102261.94
2023-05-19T20:58:42.987Z,102265.84
2023-05-19T21:03:44.576Z,102271.22
2023-05-19T21:08:46.367Z,102272.13
2023-05-19T21:13:48.027Z,102264.13
2023-05-19T21:18:51.148Z,102272.16
2023-05-19T21:23:54.007Z,102271.06
2023-05-19T21:28:57.710Z,102274.19
2023-05-19T21:33:59.436Z,102279.50
2023-05-19T21:39:01.130Z,102277.41
2023-05-19T21:44:04.544Z,102289.22
2023-05-19T21:49:08.481Z,102276.25
2023-05-19T21:54:11.633Z,102260.28
2023-05-19T21:59:14.513Z,102256.50
2023-05-19T22:04:18.503Z,102238.84
2023-05-19T22:09:20.782Z,102214.59
2023-05-19T22:14:22.707Z,102188.56
2023-05-19T22:19:24.341Z,102174.63
2023-05-19T22:24:27.281Z,102151.09
2023-05-19T22:29:29.393Z,102141.47
2023-05-19T22:34:33.648Z,102131.19
2023-05-19T22:39:35.660Z,102112.25
2023-05-19T22:44:37.208Z,102108.53
2023-05-19T22:49:39.990Z,102098.13
2023-05-19T22:54:43.176Z,102092.91
2023-05-19T22:59:44.903Z,102086.75
2023-05-19T23:04:46.443Z,102078.69
2023-05-19T23:09:48.053Z,102067.31
2023-05-19T23:14:51.052Z,102059.53
2023-05-19T23:19:53.739Z,102062.78
2023-05-19T23:24:56.028Z,102048.03
2023-05-19T23:29:57.693Z,102056.41
2023-05-19T23:35:09.636Z,102045.03
2023-05-19T23:40:12.274Z,102045.75
2023-05-19T23:45:14.301Z,102041.16
2023-05-19T23:50:16.010Z,102040.06
2023-05-19T23:55:17.803Z,102037.47
